Time;durP1;ratioP1;P1;durP2;ratioP2;P2;SDS_P1;SDS_P2;PMS_P1;PMS_P2;Temp;Humidity;BMP_temperature;BMP_pressure;BME280_temperature;BME280_humidity;BME280_pressure;Samples;Min_cycle;Max_cycle;Signal;HPM_P1;HPM_P2
2022/10/29 00:00:03;;;;;;;24.70;2.80;;;;;;;;;;5052701;28;20655;-56
2022/10/29 00:02:28;;;;;;;18.67;2.27;;;13.80;99.90;;;;;;5052738;28;20238;-56
2022/10/29 00:04:56;;;;;;;20.83;2.97;;;13.90;99.90;;;;;;5052454;28;20628;-56
2022/10/29 00:07:22;;;;;;;22.15;2.47;;;;;;;;;;5052559;28;20166;-56
2022/10/29 00:09:48;;;;;;;18.93;2.70;;;13.70;99.90;;;;;;5052467;28;20172;-56
2022/10/29 00:12:13;;;;;;;24.10;2.70;;;13.90;99.90;;;;;;5052418;28;20268;-56
2022/10/29 00:14:39;;;;;;;14.87;2.53;;;;;;;;;;5052414;28;20173;-56
2022/10/29 00:17:05;;;;;;;22.43;2.70;;;;;;;;;;5052385;28;20303;-56
2022/10/29 00:19:31;;;;;;;21.23;2.40;;;13.80;99.90;;;;;;5052337;28;20185;-56
2022/10/29 00:21:57;;;;;;;25.17;2.50;;;;;;;;;;5052295;28;20173;-56
2022/10/29 00:24:23;;;;;;;21.50;2.63;;;;;;;;;;5052033;28;20691;-56
2022/10/29 00:26:49;;;;;;;19.60;2.50;;;;;;;;;;5052232;28;20200;-56
2022/10/29 00:29:15;;;;;;;21.30;2.80;;;14.10;99.90;;;;;;5051960;28;20543;-56
2022/10/29 00:31:41;;;;;;;25.17;3.17;;;;;;;;;;5051010;28;20173;-56
2022/10/29 00:34:07;;;;;;;24.37;2.47;;;;;;;;;;5056311;28;20177;-56
2022/10/29 00:36:33;;;;;;;23.10;3.10;;;;;;;;;;5071758;28;20214;-56
2022/10/29 00:38:59;;;;;;;21.20;2.38;;;;;;;;;;5064228;28;20196;-56
2022/10/29 00:41:28;;;;;;;23.42;3.25;;;13.90;99.90;;;;;;5051601;28;20209;-56
2022/10/29 00:44:19;;;;;;;18.42;2.92;;;14.00;99.90;;;;;;5051784;28;20252;-56
2022/10/29 00:47:09;;;;;;;26.70;3.87;;;14.00;99.90;;;;;;5051754;28;20208;-56
2022/10/29 00:49:35;;;;;;;14.40;2.85;;;;;;;;;;5051717;28;20173;-56
2022/10/29 00:52:03;;;;;;;18.38;1.98;;;13.90;99.90;;;;;;5051682;28;20185;-56
2022/10/29 00:54:32;;;;;;;21.20;2.87;;;13.90;99.90;;;;;;5051617;28;20169;-56
2022/10/29 00:57:00;;;;;;;12.02;2.30;;;;;;;;;;5051477;28;20235;-56
2022/10/29 00:59:26;;;;;;;24.03;2.90;;;;;;;;;;5051586;28;20165;-56
2022/10/29 01:01:54;;;;;;;17.07;2.60;;;13.90;99.90;;;;;;5051401;28;20177;-56
2022/10/29 01:04:22;;;;;;;20.40;2.80;;;13.40;99.90;;;;;;5051547;28;20656;-56
2022/10/29 01:06:48;;;;;;;13.37;2.40;;;13.40;99.90;;;;;;5051411;28;20175;-56
2022/10/29 01:09:14;;;;;;;19.40;3.00;;;;;;;;;;5051636;28;20256;-56
2022/10/29 01:12:03;;;;;;;19.07;2.37;;;;;;;;;;5051417;28;20177;-56
2022/10/29 01:14:34;;;;;;;18.85;2.65;;;;;;;;;;5051342;28;20200;-56
2022/10/29 01:17:09;;;;;;;14.80;2.93;;;13.70;99.90;;;;;;5051092;28;20298;-56
2022/10/29 01:19:53;;;;;;;16.13;2.80;;;13.50;99.90;;;;;;5051314;28;20198;-56
2022/10/29 01:22:19;;;;;;;26.48;3.50;;;;;;;;;;5051135;28;20220;-56
2022/10/29 01:25:21;;;;;;;14.67;2.80;;;13.70;99.90;;;;;;5051101;28;20573;-56
2022/10/29 01:28:05;;;;;;;18.23;2.77;;;13.60;99.90;;;;;;5051116;28;20180;-56
2022/10/29 01:31:05;;;;;;;25.63;2.97;;;13.60;99.90;;;;;;5051088;28;20181;-56
2022/10/29 01:33:52;;;;;;;19.93;2.57;;;13.80;99.90;;;;;;5050904;28;20173;-56
2022/10/29 01:36:36;;;;;;;10.73;2.40;;;;;;;;;;5050809;28;20244;-56
2022/10/29 01:39:28;;;;;;;20.37;2.50;;;13.80;99.90;;;;;;5050967;28;20196;-56
2022/10/29 01:42:16;;;;;;;24.50;3.10;;;13.80;99.90;;;;;;5046466;28;20217;-56
2022/10/29 01:45:08;;;;;;;20.67;2.95;;;13.60;99.90;;;;;;5050622;28;20670;-56
2022/10/29 01:47:41;;;;;;;19.97;3.00;;;;;;;;;;5050756;28;20173;-56
2022/10/29 01:50:09;;;;;;;14.77;2.43;;;13.70;99.90;;;;;;5050847;28;20260;-56
2022/10/29 01:52:37;;;;;;;19.83;3.07;;;13.80;99.90;;;;;;5050742;28;20308;-56
2022/10/29 01:55:03;;;;;;;23.40;2.73;;;13.50;99.90;;;;;;5050677;28;20169;-56
2022/10/29 01:57:39;;;;;;;22.33;2.70;;;;;;;;;;5050601;28;20177;-56
2022/10/29 02:00:11;;;;;;;19.93;3.07;;;13.90;99.90;;;;;;5050708;28;20255;-56
2022/10/29 02:02:40;;;;;;;19.67;2.67;;;;;;;;;;5050607;28;20279;-56
2022/10/29 02:05:23;;;;;;;23.27;2.80;;;13.40;99.90;;;;;;5050642;28;20254;-56
2022/10/29 02:07:51;;;;;;;18.47;2.60;;;;;;;;;;5050543;28;20158;-56
2022/10/29 02:10:42;;;;;;;17.37;2.60;;;13.90;99.90;;;;;;5050690;28;20181;-56
2022/10/29 02:13:10;;;;;;;16.30;2.83;;;;;;;;;;5050548;28;20528;-56
2022/10/29 02:15:48;;;;;;;19.00;3.20;;;13.90;99.90;;;;;;5050518;28;20215;-56
2022/10/29 02:18:15;;;;;;;15.00;2.70;;;13.80;99.90;;;;;;5050459;28;20177;-56
2022/10/29 02:20:42;;;;;;;29.43;3.57;;;;;;;;;;5050533;28;20165;-56
2022/10/29 02:23:08;;;;;;;18.87;2.77;;;;;;;;;;5050395;28;20181;-56
2022/10/29 02:25:34;;;;;;;24.07;3.53;;;13.70;99.90;;;;;;5050765;28;20176;-56
2022/10/29 02:28:00;;;;;;;23.10;3.80;;;;;;;;;;5050567;28;20487;-56
2022/10/29 02:30:26;;;;;;;27.43;3.27;;;;;;;;;;5050410;28;20177;-56
2022/10/29 02:32:52;;;;;;;19.13;3.37;;;;;;;;;;5049383;28;20188;-56
2022/10/29 02:35:18;;;;;;;22.30;3.05;;;;;;;;;;5050278;28;20177;-57
2022/10/29 02:37:43;;;;;;;19.00;3.57;;;14.00;99.90;;;;;;5050333;28;20188;-56
2022/10/29 02:40:10;;;;;;;19.52;3.38;;;14.30;99.90;;;;;;5050336;28;20531;-56
2022/10/29 02:42:36;;;;;;;22.93;3.83;;;;;;;;;;5050129;28;20294;-56
2022/10/29 02:45:02;;;;;;;25.80;3.30;;;14.30;99.90;;;;;;5054238;28;20177;-56
2022/10/29 02:47:28;;;;;;;28.50;3.70;;;;;;;;;;5063739;28;20187;-56
2022/10/29 02:49:54;;;;;;;21.10;3.60;;;;;;;;;;5070171;28;20169;-56
2022/10/29 02:52:20;;;;;;;19.42;3.60;;;14.10;99.90;;;;;;5050234;28;20187;-56
2022/10/29 02:54:45;;;;;;;18.10;3.38;;;14.20;99.90;;;;;;5050598;28;20180;-56
2022/10/29 02:57:11;;;;;;;18.50;3.73;;;;;;;;;;5053833;28;20212;-56
2022/10/29 02:59:37;;;;;;;21.98;4.10;;;14.20;99.90;;;;;;5053736;28;20660;-56
2022/10/29 03:02:03;;;;;;;22.13;4.47;;;14.40;99.90;;;;;;5053826;28;20260;-56
2022/10/29 03:04:28;;;;;;;21.03;4.20;;;14.40;99.90;;;;;;5053763;28;20644;-56
2022/10/29 03:06:54;;;;;;;24.17;3.77;;;;;;;;;;5053628;28;20165;-56
2022/10/29 03:09:20;;;;;;;26.13;3.80;;;14.10;99.90;;;;;;5053671;28;20173;-56
2022/10/29 03:11:46;;;;;;;23.88;4.10;;;14.60;99.90;;;;;;5053541;28;20165;-56
2022/10/29 03:14:12;;;;;;;21.15;4.10;;;14.30;99.90;;;;;;5053739;28;20169;-56
2022/10/29 03:16:38;;;;;;;17.80;4.03;;;;;;;;;;5053314;28;20559;-56
2022/10/29 03:19:04;;;;;;;21.85;4.28;;;14.50;99.90;;;;;;5053493;28;20538;-56
2022/10/29 03:21:30;;;;;;;20.38;4.57;;;;;;;;;;5053502;28;20173;-56
2022/10/29 03:23:56;;;;;;;26.87;3.70;;;;;;;;;;5053399;28;20166;-56
2022/10/29 03:26:21;;;;;;;21.60;4.38;;;14.20;99.90;;;;;;5053312;28;20205;-56
2022/10/29 03:28:47;;;;;;;19.77;4.13;;;14.60;99.90;;;;;;5053320;28;20242;-56
2022/10/29 03:31:13;;;;;;;18.30;4.72;;;;;;;;;;5053228;28;20600;-57
2022/10/29 03:33:39;;;;;;;18.52;4.10;;;;;;;;;;5053185;28;20177;-56
2022/10/29 03:36:06;;;;;;;17.65;4.65;;;14.40;99.90;;;;;;5052977;28;20745;-56
2022/10/29 03:38:32;;;;;;;21.23;4.82;;;14.20;99.90;;;;;;5053216;28;20193;-56
2022/10/29 03:40:58;;;;;;;16.75;4.60;;;14.40;99.90;;;;;;5072702;28;20168;-56
2022/10/29 03:43:24;;;;;;;22.55;4.90;;;;;;;;;;5072911;28;20623;-56
2022/10/29 03:45:54;;;;;;;18.80;4.68;;;14.20;99.90;;;;;;5072884;28;20195;-56
2022/10/29 03:48:20;;;;;;;22.30;5.05;;;14.20;99.90;;;;;;5072810;28;20632;-56
2022/10/29 03:51:01;;;;;;;14.20;4.63;;;14.50;99.90;;;;;;5072825;28;20168;-56
2022/10/29 03:53:28;;;;;;;15.90;4.72;;;14.10;99.90;;;;;;5073007;28;20233;-56
2022/10/29 03:55:55;;;;;;;18.43;4.80;;;14.40;99.90;;;;;;5072712;28;20709;-56
2022/10/29 03:58:21;;;;;;;21.20;5.43;;;;;;;;;;5072760;28;20192;-56
2022/10/29 04:00:59;;;;;;;17.50;4.93;;;14.40;99.90;;;;;;5072648;28;20222;-56
2022/10/29 04:03:26;;;;;;;14.95;5.18;;;14.40;99.90;;;;;;5072900;28;20183;-56
2022/10/29 04:05:52;;;;;;;15.73;5.65;;;;;;;;;;5072382;28;20248;-56
2022/10/29 04:08:18;;;;;;;15.25;5.53;;;14.30;99.90;;;;;;5072527;28;20173;-56
2022/10/29 04:10:48;;;;;;;14.45;5.45;;;14.40;99.90;;;;;;5072463;28;20164;-56
2022/10/29 04:13:15;;;;;;;16.23;5.23;;;14.40;99.90;;;;;;5072456;28;20169;-56
2022/10/29 04:15:41;;;;;;;19.45;5.70;;;;;;;;;;5072566;28;20204;-56
2022/10/29 04:18:07;;;;;;;16.00;5.30;;;14.40;99.90;;;;;;5072344;28;20176;-56
2022/10/29 04:20:34;;;;;;;15.90;5.43;;;14.30;99.90;;;;;;5072343;28;20187;-56
2022/10/29 04:23:00;;;;;;;14.30;5.00;;;;;;;;;;5072219;28;20218;-56
2022/10/29 04:25:26;;;;;;;13.18;4.82;;;14.60;99.90;;;;;;5072277;28;20168;-56
2022/10/29 04:27:55;;;;;;;13.15;4.75;;;14.40;99.90;;;;;;5072019;28;20674;-56
2022/10/29 04:30:22;;;;;;;15.33;5.23;;;14.60;99.90;;;;;;5071982;28;20175;-56
2022/10/29 04:32:47;;;;;;;13.73;4.87;;;14.30;99.90;;;;;;5072074;28;20657;-56
2022/10/29 04:35:13;;;;;;;9.50;4.93;;;;;;;;;;5071882;28;20180;-56
2022/10/29 04:37:39;;;;;;;15.10;4.50;;;14.50;99.90;;;;;;5072011;28;20264;-56
2022/10/29 04:40:05;;;;;;;9.27;3.78;;;14.30;99.90;;;;;;5059407;28;20251;-56
2022/10/29 04:42:38;;;;;;;12.13;4.50;;;14.30;99.90;;;;;;5051586;28;20682;-56
2022/10/29 04:45:06;;;;;;;9.97;3.40;;;14.60;99.90;;;;;;5051830;28;20174;-56
2022/10/29 04:47:32;;;;;;;11.27;3.90;;;;;;;;;;5051826;28;20177;-56
2022/10/29 04:49:57;;;;;;;14.88;4.00;;;14.50;99.90;;;;;;5051698;28;20623;-56
2022/10/29 04:52:23;;;;;;;17.27;3.87;;;;;;;;;;5051795;28;20173;-56
2022/10/29 04:54:49;;;;;;;9.07;2.70;;;;;;;;;;5051632;28;20681;-56
2022/10/29 04:57:15;;;;;;;10.40;3.17;;;;;;;;;;5051462;28;20255;-57
2022/10/29 04:59:41;;;;;;;13.63;3.30;;;14.30;99.90;;;;;;5051586;28;20165;-57
2022/10/29 05:02:07;;;;;;;7.38;2.33;;;;;;;;;;5051410;28;20682;-57
2022/10/29 05:04:33;;;;;;;11.55;2.95;;;14.40;99.90;;;;;;5051528;28;20162;-57
2022/10/29 05:06:59;;;;;;;7.22;2.75;;;;;;;;;;5051344;28;20214;-57
2022/10/29 05:09:25;;;;;;;9.63;3.03;;;;;;;;;;5051589;28;20173;-56
2022/10/29 05:11:51;;;;;;;10.47;2.73;;;;;;;;;;5051433;28;20176;-57
2022/10/29 05:14:16;;;;;;;14.30;3.00;;;14.60;99.90;;;;;;5051510;28;20181;-56
2022/10/29 05:16:42;;;;;;;14.83;3.07;;;14.50;99.90;;;;;;5050109;28;20566;-55
2022/10/29 05:19:08;;;;;;;9.70;2.87;;;;;;;;;;5050656;28;20176;-54
2022/10/29 05:21:34;;;;;;;8.05;2.47;;;;;;;;;;5051155;28;20268;-56
2022/10/29 05:24:00;;;;;;;12.07;2.83;;;14.50;99.90;;;;;;5051138;28;20667;-56
2022/10/29 05:26:26;;;;;;;17.55;2.78;;;;;;;;;;5051035;28;20179;-54
2022/10/29 05:28:51;;;;;;;7.43;2.75;;;14.70;99.90;;;;;;5051119;28;20197;-55
2022/10/29 05:31:18;;;;;;;12.75;3.00;;;14.80;99.90;;;;;;5050983;28;20212;-55
2022/10/29 05:33:44;;;;;;;9.73;3.08;;;14.50;99.90;;;;;;5051138;28;20169;-56
2022/10/29 05:36:10;;;;;;;12.10;2.92;;;;;;;;;;5050986;28;20281;-56
2022/10/29 05:38:36;;;;;;;16.65;3.00;;;;;;;;;;5050971;28;20212;-56
2022/10/29 05:41:02;;;;;;;13.32;3.67;;;;;;;;;;5050942;28;20174;-56
2022/10/29 05:43:28;;;;;;;11.23;3.10;;;;;;;;;;5050775;28;20251;-56
2022/10/29 05:45:54;;;;;;;9.10;3.00;;;15.30;99.90;;;;;;5050877;28;20200;-56
2022/10/29 05:48:20;;;;;;;15.68;3.88;;;;;;;;;;5050990;28;20205;-55
2022/10/29 05:50:46;;;;;;;14.10;4.10;;;14.60;99.90;;;;;;5050795;28;20169;-55
2022/10/29 05:53:13;;;;;;;14.32;4.13;;;14.80;99.90;;;;;;5050814;28;20189;-55
2022/10/29 05:55:39;;;;;;;18.55;4.68;;;14.80;99.90;;;;;;5050539;28;20208;-55
2022/10/29 05:58:08;;;;;;;15.95;4.32;;;14.90;99.90;;;;;;5050916;28;20177;-56
2022/10/29 06:00:36;;;;;;;13.67;4.60;;;14.90;99.90;;;;;;5050680;28;20633;-58
2022/10/29 06:03:02;;;;;;;13.38;5.18;;;;;;;;;;5050732;28;20202;-56
2022/10/29 06:05:28;;;;;;;16.65;4.97;;;;;;;;;;5050639;28;20172;-55
2022/10/29 06:07:55;;;;;;;19.02;5.65;;;15.00;99.90;;;;;;5050662;28;20224;-56
2022/10/29 06:10:21;;;;;;;16.13;5.60;;;;;;;;;;5050586;28;20168;-56
2022/10/29 06:12:47;;;;;;;15.68;5.55;;;;;;;;;;5050812;28;20263;-56
2022/10/29 06:15:14;;;;;;;16.42;5.65;;;;;;;;;;5050558;28;20268;-56
2022/10/29 06:17:41;;;;;;;18.07;7.33;;;15.00;99.90;;;;;;5050678;28;20189;-55
2022/10/29 06:20:07;;;;;;;25.98;6.90;;;15.00;99.90;;;;;;5050442;28;20579;-56
2022/10/29 06:22:33;;;;;;;19.15;6.90;;;;;;;;;;5050506;28;20520;-55
2022/10/29 06:24:59;;;;;;;19.58;7.40;;;;;;;;;;5050494;28;20180;-56
2022/10/29 06:27:25;;;;;;;19.55;7.50;;;15.00;99.90;;;;;;5050517;28;20248;-56
2022/10/29 06:29:51;;;;;;;18.50;8.10;;;14.80;99.90;;;;;;5051203;28;20252;-55
2022/10/29 06:32:16;;;;;;;20.58;9.60;;;15.20;99.90;;;;;;5054252;28;20273;-55
2022/10/29 06:34:43;;;;;;;18.02;8.27;;;;;;;;;;5053137;28;20191;-55
2022/10/29 06:37:09;;;;;;;25.65;9.00;;;;;;;;;;5054197;28;20205;-55
2022/10/29 06:39:35;;;;;;;40.47;8.75;;;;;;;;;;5054076;28;20291;-55
2022/10/29 06:42:01;;;;;;;17.75;8.95;;;;;;;;;;5054126;28;20371;-55
2022/10/29 06:44:27;;;;;;;25.48;9.15;;;;;;;;;;5054296;28;20174;-55
2022/10/29 06:46:53;;;;;;;21.98;9.65;;;;;;;;;;5054152;28;20165;-55
2022/10/29 06:49:20;;;;;;;17.17;8.65;;;15.10;99.90;;;;;;5054058;28;20177;-55
2022/10/29 06:51:46;;;;;;;20.98;8.93;;;15.00;99.90;;;;;;5053813;28;20640;-55
2022/10/29 06:54:11;;;;;;;22.98;8.52;;;15.20;99.90;;;;;;5053944;28;20257;-55
2022/10/29 06:56:37;;;;;;;30.25;9.57;;;;;;;;;;5053659;28;20208;-55
2022/10/29 06:59:04;;;;;;;17.98;7.30;;;;;;;;;;5053832;28;20168;-55
2022/10/29 07:01:31;;;;;;;23.95;7.57;;;;;;;;;;5053789;28;20173;-55
2022/10/29 07:03:58;;;;;;;22.13;6.43;;;15.40;99.90;;;;;;5053554;28;20184;-55
2022/10/29 07:06:24;;;;;;;24.90;5.10;;;;;;;;;;5053510;28;20260;-55
2022/10/29 07:08:50;;;;;;;16.80;4.78;;;;;;;;;;5053559;28;20204;-55
2022/10/29 07:11:16;;;;;;;19.85;4.32;;;;;;;;;;5053623;28;20189;-55
2022/10/29 07:13:42;;;;;;;16.85;4.63;;;;;;;;;;5053540;28;20173;-55
2022/10/29 07:16:08;;;;;;;23.58;4.88;;;15.90;99.90;;;;;;5053316;28;20283;-55
2022/10/29 07:18:34;;;;;;;21.40;5.32;;;;;;;;;;5052770;28;20204;-56
2022/10/29 07:21:02;;;;;;;15.10;4.40;;;16.10;99.90;;;;;;5069185;28;20172;-56
2022/10/29 07:23:28;;;;;;;15.00;4.30;;;;;;;;;;5073302;28;20543;-56
2022/10/29 07:25:54;;;;;;;20.40;3.70;;;16.20;99.90;;;;;;5073221;28;20168;-56
2022/10/29 07:28:22;;;;;;;18.35;4.45;;;16.30;99.90;;;;;;5073181;28;20169;-56
2022/10/29 07:30:48;;;;;;;19.10;4.60;;;;;;;;;;5073321;28;20211;-56
2022/10/29 07:33:15;;;;;;;12.95;3.97;;;16.40;99.90;;;;;;5073092;28;20255;-56
2022/10/29 07:35:41;;;;;;;19.50;3.83;;;16.20;99.90;;;;;;5073066;28;20204;-56
2022/10/29 07:38:08;;;;;;;13.57;3.70;;;;;;;;;;5073058;28;20177;-55
2022/10/29 07:40:34;;;;;;;10.25;3.42;;;;;;;;;;5072589;28;20260;-55
2022/10/29 07:43:00;;;;;;;13.10;3.15;;;;;;;;;;5072977;28;20220;-55
2022/10/29 07:45:27;;;;;;;20.05;4.20;;;16.80;99.90;;;;;;5073025;28;20177;-56
2022/10/29 07:48:00;;;;;;;15.25;4.13;;;12.60;99.90;;;;;;5072861;28;20265;-56
2022/10/29 07:50:27;;;;;;;17.02;3.08;;;16.90;99.90;;;;;;5072926;28;20173;-56
2022/10/29 07:52:53;;;;;;;18.90;4.07;;;;;;;;;;5061051;28;20226;-56
2022/10/29 07:55:19;;;;;;;19.40;4.43;;;;;;;;;;5071206;28;20298;-56
2022/10/29 07:57:45;;;;;;;15.35;3.55;;;;;;;;;;5067295;28;20226;-56
2022/10/29 08:00:13;;;;;;;16.83;3.40;;;;;;;;;;5052660;28;20172;-56
2022/10/29 08:02:41;;;;;;;22.13;3.35;;;;;;;;;;5052478;28;20196;-56
2022/10/29 08:05:07;;;;;;;19.58;3.70;;;17.00;99.90;;;;;;5052866;28;20617;-56
2022/10/29 08:07:33;;;;;;;24.08;3.97;;;17.20;99.90;;;;;;5052490;28;20169;-55
2022/10/29 08:09:59;;;;;;;14.23;3.30;;;;;;;;;;5056712;28;20643;-55
2022/10/29 08:12:25;;;;;;;13.90;3.55;;;;;;;;;;5072459;28;20172;-56
2022/10/29 08:14:50;;;;;;;15.85;3.22;;;16.70;99.90;;;;;;5072325;28;20180;-56
2022/10/29 08:17:16;;;;;;;17.27;3.42;;;;;;;;;;5072002;28;20212;-56
2022/10/29 08:19:42;;;;;;;18.83;3.92;;;;;;;;;;5072117;28;20211;-56
2022/10/29 08:22:08;;;;;;;20.23;3.60;;;17.10;99.90;;;;;;5072113;28;20169;-56
2022/10/29 08:24:34;;;;;;;26.05;3.53;;;;;;;;;;5071905;28;20175;-56
2022/10/29 08:27:00;;;;;;;12.48;3.22;;;;;;;;;;5072108;28;20210;-56
2022/10/29 08:29:26;;;;;;;12.20;2.65;;;;;;;;;;5071977;28;20259;-56
2022/10/29 08:31:52;;;;;;;20.70;3.50;;;17.60;99.90;;;;;;5071880;28;20176;-56
2022/10/29 08:34:17;;;;;;;17.00;3.67;;;16.90;99.90;;;;;;5071877;28;20222;-55
2022/10/29 08:36:43;;;;;;;14.85;2.88;;;;;;;;;;5071783;28;20599;-56
2022/10/29 08:39:09;;;;;;;12.80;3.40;;;17.30;99.90;;;;;;5070619;28;20650;-56
2022/10/29 08:41:54;;;;;;;17.23;3.65;;;17.30;99.90;;;;;;5071627;28;20184;-56
2022/10/29 08:44:43;;;;;;;13.65;3.20;;;;;;;;;;5071405;28;20302;-56
2022/10/29 08:47:19;;;;;;;22.27;3.78;;;17.40;99.90;;;;;;5060382;28;20636;-56
2022/10/29 08:50:22;;;;;;;18.67;3.45;;;17.40;99.90;;;;;;5051713;28;20208;-56
2022/10/29 08:52:51;;;;;;;16.02;3.50;;;17.40;99.90;;;;;;5050668;28;20209;-56
2022/10/29 08:55:20;;;;;;;23.58;3.72;;;17.50;99.90;;;;;;5051555;28;20184;-56
2022/10/29 08:57:55;;;;;;;18.77;3.70;;;17.30;99.90;;;;;;5051527;28;20718;-56
2022/10/29 09:00:25;;;;;;;12.32;3.72;;;17.50;99.90;;;;;;5051532;28;20173;-56
2022/10/29 09:02:56;;;;;;;19.60;3.42;;;17.70;99.90;;;;;;5051326;28;20581;-55
2022/10/29 09:05:46;;;;;;;15.35;3.15;;;17.80;99.90;;;;;;5051454;28;20184;-56
2022/10/29 09:08:24;;;;;;;11.52;2.85;;;17.70;99.90;;;;;;5051409;28;20173;-56
2022/10/29 09:10:55;;;;;;;15.63;3.60;;;17.80;99.90;;;;;;5051158;28;20208;-56
2022/10/29 09:13:46;;;;;;;12.85;3.33;;;17.90;99.90;;;;;;5051087;28;20252;-59
2022/10/29 09:16:22;;;;;;;21.65;3.33;;;17.90;99.90;;;;;;5051032;28;20262;-56
2022/10/29 09:19:00;;;;;;;20.42;3.90;;;17.80;99.90;;;;;;5066482;28;20712;-56
2022/10/29 09:21:55;;;;;;;19.67;3.33;;;17.90;99.90;;;;;;5051056;28;20246;-56
2022/10/29 09:24:39;;;;;;;14.18;3.50;;;18.20;99.90;;;;;;5051079;28;20184;-56
2022/10/29 09:27:21;;;;;;;20.88;4.30;;;18.20;99.90;;;;;;5050845;28;20188;-56
2022/10/29 09:30:03;;;;;;;16.40;3.22;;;18.10;99.90;;;;;;5051320;28;20675;-55
2022/10/29 09:32:34;;;;;;;16.75;3.33;;;18.10;99.90;;;;;;5050574;28;20252;-56
2022/10/29 09:35:17;;;;;;;13.07;3.25;;;18.30;99.90;;;;;;5051027;28;20204;-56
2022/10/29 09:37:53;;;;;;;19.95;3.80;;;18.40;99.90;;;;;;5050773;28;20663;-55
2022/10/29 09:40:39;;;;;;;15.45;3.60;;;18.20;99.90;;;;;;5050580;28;20214;-56
2022/10/29 09:43:27;;;;;;;16.85;3.63;;;18.40;99.90;;;;;;5050565;28;20221;-55
2022/10/29 09:46:17;;;;;;;14.15;3.80;;;18.50;99.90;;;;;;5040204;28;20213;-56
2022/10/29 09:49:15;;;;;;;15.63;3.42;;;18.50;99.90;;;;;;5070730;28;20247;-56
2022/10/29 09:51:55;;;;;;;12.73;3.28;;;18.60;99.90;;;;;;5070672;28;20204;-56
2022/10/29 09:54:24;;;;;;;25.33;3.53;;;18.60;99.90;;;;;;5070561;28;20175;-56
2022/10/29 09:56:50;;;;;;;9.82;2.75;;;18.90;99.90;;;;;;5070495;28;20204;-56
2022/10/29 09:59:16;;;;;;;10.13;2.60;;;;;;;;;;5070542;28;20255;-56
2022/10/29 10:01:42;;;;;;;13.30;2.80;;;;;;;;;;5070559;28;20200;-56
2022/10/29 10:04:28;;;;;;;18.63;3.53;;;19.10;99.90;;;;;;5071770;28;20196;-56
2022/10/29 10:07:15;;;;;;;13.23;3.20;;;19.30;99.90;;;;;;5074728;28;20253;-56
2022/10/29 10:09:58;;;;;;;12.20;2.70;;;19.10;99.90;;;;;;5074630;28;20172;-56
2022/10/29 10:12:35;;;;;;;19.60;3.20;;;19.40;99.90;;;;;;5074540;28;20168;-56
2022/10/29 10:15:24;;;;;;;10.02;2.92;;;19.50;99.90;;;;;;5074515;28;20160;-56
2022/10/29 10:18:18;;;;;;;21.33;3.03;;;20.00;99.90;;;;;;5074921;28;20181;-56
2022/10/29 10:20:48;;;;;;;15.55;3.00;;;20.00;99.90;;;;;;5074569;28;20176;-56
2022/10/29 10:23:25;;;;;;;12.65;2.95;;;19.90;99.90;;;;;;5074360;28;20160;-56
2022/10/29 10:25:54;;;;;;;15.00;2.97;;;20.10;99.90;;;;;;5074170;28;20251;-56
2022/10/29 10:28:23;;;;;;;11.88;3.50;;;20.40;99.90;;;;;;5074060;28;20666;-58
2022/10/29 10:31:11;;;;;;;11.20;2.40;;;20.30;99.90;;;;;;5074321;28;20169;-56
2022/10/29 10:33:50;;;;;;;14.48;2.70;;;20.40;99.90;;;;;;5074303;28;20185;-56
2022/10/29 10:36:20;;;;;;;18.60;2.60;;;20.40;99.90;;;;;;5073904;28;20245;-55
2022/10/29 10:38:49;;;;;;;15.27;2.97;;;20.90;99.90;;;;;;5074028;28;20267;-56
2022/10/29 10:41:26;;;;;;;17.58;2.72;;;20.70;99.90;;;;;;5073906;28;20168;-57
2022/10/29 10:43:56;;;;;;;12.90;2.13;;;20.70;99.90;;;;;;5073881;28;20216;-56
2022/10/29 10:46:25;;;;;;;19.98;3.20;;;21.60;99.90;;;;;;5074035;28;20581;-56
2022/10/29 10:49:05;;;;;;;11.55;3.13;;;21.20;99.90;;;;;;5073959;28;20177;-56
2022/10/29 10:51:32;;;;;;;13.25;2.55;;;;;;;;;;5073837;28;20176;-56
2022/10/29 10:54:03;;;;;;;12.40;2.97;;;21.30;99.90;;;;;;5074161;28;20172;-56
2022/10/29 10:56:29;;;;;;;13.55;2.30;;;;;;;;;;5073738;28;20686;-56
2022/10/29 10:58:55;;;;;;;12.65;2.83;;;;;;;;;;5073786;28;20169;-57
2022/10/29 11:01:30;;;;;;;19.65;3.03;;;21.60;99.90;;;;;;5073813;28;20175;-56
2022/10/29 11:04:04;;;;;;;8.10;1.90;;;21.20;99.90;;;;;;5073510;28;20187;-56
2022/10/29 11:06:51;;;;;;;14.00;3.10;;;21.20;99.90;;;;;;5073710;28;20168;-56
2022/10/29 11:09:17;;;;;;;15.05;2.58;;;;;;;;;;5073810;28;20180;-56
2022/10/29 11:11:49;;;;;;;14.05;2.20;;;20.90;99.90;;;;;;5073578;28;20593;-56
2022/10/29 11:14:24;;;;;;;18.80;3.30;;;20.80;99.90;;;;;;5073467;28;20230;-56
2022/10/29 11:16:56;;;;;;;11.27;2.38;;;20.90;99.90;;;;;;5072564;28;20207;-56
2022/10/29 11:19:26;;;;;;;14.13;2.90;;;20.90;99.90;;;;;;5073330;28;20168;-56
2022/10/29 11:21:59;;;;;;;15.65;3.47;;;21.00;99.90;;;;;;5073429;28;20172;-56
2022/10/29 11:24:32;;;;;;;16.20;3.20;;;;;;;;;;5073266;28;20306;-56
2022/10/29 11:27:23;;;;;;;8.48;2.42;;;20.70;99.90;;;;;;5073181;28;20623;-56
2022/10/29 11:30:03;;;;;;;15.15;3.08;;;21.10;99.90;;;;;;5073395;28;20200;-56
2022/10/29 11:32:49;;;;;;;14.48;2.88;;;20.30;99.90;;;;;;5073169;28;20222;-56
2022/10/29 11:35:19;;;;;;;10.93;2.60;;;20.60;99.90;;;;;;5073088;28;20180;-56
2022/10/29 11:37:47;;;;;;;14.93;2.60;;;20.50;99.90;;;;;;5073020;28;20239;-56
2022/10/29 11:40:22;;;;;;;16.92;2.17;;;22.50;99.90;;;;;;5073053;28;20180;-56
2022/10/29 11:42:48;;;;;;;10.98;2.85;;;;;;;;;;5072778;28;20628;-56
2022/10/29 11:45:21;;;;;;;8.30;2.70;;;27.00;99.90;;;;;;5072845;28;20168;-56
2022/10/29 11:48:01;;;;;;;11.93;2.00;;;27.70;99.90;;;;;;5072846;28;20169;-56
2022/10/29 11:50:56;;;;;;;10.88;2.60;;;27.80;99.90;;;;;;5072712;28;20638;-55
2022/10/29 11:53:59;;;;;;;11.50;2.20;;;25.00;99.90;;;;;;5072675;28;20546;-55
2022/10/29 11:56:47;;;;;;;18.35;2.85;;;22.40;99.90;;;;;;5072632;28;20218;-55
2022/10/29 11:59:20;;;;;;;17.83;2.95;;;21.80;99.90;;;;;;5072622;28;20167;-54
2022/10/29 12:02:14;;;;;;;11.05;2.40;;;22.00;99.90;;;;;;5072609;28;20180;-54
2022/10/29 12:04:53;;;;;;;11.88;2.33;;;21.90;99.90;;;;;;5059641;28;20188;-55
2022/10/29 12:07:47;;;;;;;19.13;2.75;;;21.80;99.90;;;;;;5069767;28;20182;-55
2022/10/29 12:10:36;;;;;;;16.77;2.80;;;21.60;99.90;;;;;;5064358;28;20177;-55
2022/10/29 12:13:12;;;;;;;13.48;2.42;;;21.60;99.90;;;;;;5052323;28;20185;-55
2022/10/29 12:15:38;;;;;;;13.13;3.03;;;;;;;;;;5052266;28;20179;-55
2022/10/29 12:18:15;;;;;;;13.38;3.13;;;24.40;99.90;;;;;;5052304;28;20174;-55
2022/10/29 12:20:58;;;;;;;10.30;2.38;;;24.70;99.90;;;;;;5052224;28;20196;-55
2022/10/29 12:23:24;;;;;;;13.25;3.05;;;;;;;;;;5068187;28;20179;-56
2022/10/29 12:26:24;;;;;;;11.38;2.50;;;26.20;99.90;;;;;;5072073;28;20643;-54
2022/10/29 12:29:21;;;;;;;14.63;3.03;;;27.90;99.90;;;;;;5069914;28;20190;-55
2022/10/29 12:31:58;;;;;;;11.35;2.83;;;26.20;99.90;;;;;;5071367;28;20269;-56
2022/10/29 12:34:34;;;;;;;9.68;3.00;;;27.80;99.90;;;;;;5071790;28;20169;-56
2022/10/29 12:37:24;;;;;;;11.65;2.97;;;28.00;99.90;;;;;;5071734;28;20237;-56
2022/10/29 12:39:59;;;;;;;10.98;2.55;;;29.20;99.90;;;;;;5071850;28;20180;-56
2022/10/29 12:42:26;;;;;;;13.80;3.08;;;29.50;99.90;;;;;;5071481;28;20584;-56
2022/10/29 12:45:20;;;;;;;10.50;2.75;;;28.60;99.90;;;;;;5071795;28;20299;-56
2022/10/29 12:47:54;;;;;;;12.73;2.47;;;27.60;99.90;;;;;;5071776;28;20271;-55
2022/10/29 12:50:22;;;;;;;13.52;2.83;;;27.20;99.90;;;;;;5071649;28;20524;-56
2022/10/29 12:52:48;;;;;;;13.30;2.63;;;;;;;;;;5071649;28;20180;-55
2022/10/29 12:55:16;;;;;;;9.13;2.10;;;25.70;99.90;;;;;;5071613;28;20225;-56
2022/10/29 12:57:42;;;;;;;7.47;1.80;;;23.90;99.90;;;;;;5071342;28;20257;-55
2022/10/29 13:00:37;;;;;;;10.52;2.60;;;;;;;;;;5053469;28;20170;-55
2022/10/29 13:03:03;;;;;;;4.03;1.20;;;;;;;;;;5045818;28;20644;-56
2022/10/29 13:05:49;;;;;;;12.15;2.70;;;22.30;99.90;;;;;;5051298;28;20189;-55
2022/10/29 13:08:26;;;;;;;7.72;2.30;;;21.90;99.90;;;;;;5051134;28;20189;-56
2022/10/29 13:10:54;;;;;;;10.60;2.53;;;22.20;99.90;;;;;;5051179;28;20652;-55
2022/10/29 13:13:35;;;;;;;11.00;2.67;;;23.60;99.90;;;;;;5051355;28;20173;-55
2022/10/29 13:16:05;;;;;;;12.77;3.03;;;23.90;99.90;;;;;;5051035;28;20659;-55
2022/10/29 13:18:51;;;;;;;10.20;2.40;;;24.30;99.90;;;;;;5051103;28;20177;-55
2022/10/29 13:21:55;;;;;;;13.82;2.85;;;23.80;99.90;;;;;;5051005;28;20180;-55
2022/10/29 13:24:21;;;;;;;13.50;2.67;;;24.10;99.90;;;;;;5051097;28;20263;-56
2022/10/29 13:26:59;;;;;;;18.83;2.72;;;24.20;99.90;;;;;;5051061;28;20264;-55
2022/10/29 13:29:46;;;;;;;9.68;2.95;;;24.00;99.90;;;;;;5050980;28;20201;-55
2022/10/29 13:32:35;;;;;;;9.65;2.97;;;23.80;99.90;;;;;;5050983;28;20644;-55
2022/10/29 13:35:04;;;;;;;12.18;2.53;;;23.00;99.90;;;;;;5048568;28;20254;-56
2022/10/29 13:37:47;;;;;;;14.02;2.95;;;22.90;99.90;;;;;;5059375;28;20679;-55